Time,TemperatureF,DewpointF,PressureIn,WindDirection,WindDirectionDegrees,WindSpeedMPH,WindSpeedGustMPH,Humidity,HourlyPrecipIn,Conditions,Clouds,dailyrainin,SoftwareType,DateUTC
2013-05-08 00:00:00,62.0,57.3,30.14,SSE,149,0.0,86.5,85,0.63,,,0.00,VWS V14.01,2013-05-08 04:00:00,
2013-05-08 00:01:00,62.0,57.3,30.13,SSE,149,0.0,86.5,84,0.63,,,0.00,VWS V14.01,2013-05-08 04:01:00,
2013-05-08 00:02:00,63.0,58.6,30.15,SSE,149,0.0,86.5,86,0.63,,,0.00,VWS V14.01,2013-05-08 04:02:00,
2013-05-08 00:03:00,63.0,58.6,30.15,SSE,149,0.0,86.5,85,0.63,,,0.00,VWS V14.01,2013-05-08 04:03:00,
2013-05-08 00:04:00,62.0,57.2,30.13,SSE,149,0.0,86.5,84,0.63,,,0.00,VWS V14.01,2013-05-08 04:04:00,
2013-05-08 00:05:00,62.0,57.2,30.13,SSE,149,0.0,86.5,84,0.63,,,0.00,VWS V14.01,2013-05-08 04:05:00,
2013-05-08 00:06:00,62.9,58.5,30.15,SSE,149,0.0,86.5,85,0.63,,,0.00,VWS V14.01,2013-05-08 04:06:00,
2013-05-08 00:07:00,61.9,57.1,30.13,SSE,149,0.0,86.5,84,0.63,,,0.00,VWS V14.01,2013-05-08 04:07:00,
2013-05-08 00:08:00,61.9,57.1,30.14,SSE,149,0.0,86.5,84,0.63,,,0.00,VWS V14.01,2013-05-08 04:08:00,
2013-05-08 00:09:00,61.9,57.1,30.14,SSE,149,0.0,86.5,84,0.63,,,0.00,VWS V14.01,2013-05-08 04:09:00,
2013-05-08 00:10:00,61.9,57.2,30.14,SSE,149,0.0,86.5,84,0.63,,,0.00,VWS V14.01,2013-05-08 04:10:00,
2013-05-08 00:11:00,62.9,58.4,30.15,SSE,149,0.0,86.5,85,0.63,,,0.00,VWS V14.01,2013-05-08 04:11:00,
2013-05-08 00:12:00,61.8,57.1,30.13,SSE,149,0.0,86.5,84,0.63,,,0.00,VWS V14.01,2013-05-08 04:12:00,
2013-05-08 00:14:00,61.7,57.0,30.14,SSE,149,0.0,86.5,84,0.63,,,0.00,VWS V14.01,2013-05-08 04:14:00,
2013-05-08 00:15:00,62.9,58.4,30.15,SSE,149,0.0,86.5,85,0.63,,,0.00,VWS V14.01,2013-05-08 04:15:00,
2013-05-08 00:16:00,61.7,57.0,30.14,SSE,149,0.0,86.5,85,0.63,,,0.00,VWS V14.01,2013-05-08 04:16:00,
2013-05-08 00:17:00,61.7,57.1,30.14,SSE,149,0.0,86.5,85,0.63,,,0.00,VWS V14.01,2013-05-08 04:17:00,
2013-05-08 00:18:00,61.7,57.1,30.14,SSE,149,0.0,86.5,85,0.63,,,0.00,VWS V14.01,2013-05-08 04:18:00,
2013-05-08 00:19:00,61.6,57.0,30.14,SSE,149,0.0,86.5,85,0.63,,,0.00,VWS V14.01,2013-05-08 04:19:00,
2013-05-08 00:20:00,62.9,58.4,30.15,SSE,149,0.0,86.5,85,0.63,,,0.00,VWS V14.01,2013-05-08 04:20:00,
2013-05-08 00:21:00,61.5,56.9,30.14,SSE,149,0.0,86.5,85,0.63,,,0.00,VWS V14.01,2013-05-08 04:21:00,
2013-05-08 00:22:00,62.9,58.3,30.15,SSE,149,0.0,86.5,85,0.63,,,0.00,VWS V14.01,2013-05-08 04:22:00,
2013-05-08 00:23:00,61.5,56.9,30.14,SSE,149,0.0,86.5,85,0.63,,,0.00,VWS V14.01,2013-05-08 04:23:00,
2013-05-08 00:24:00,61.4,56.8,30.14,SSE,149,0.0,86.5,85,0.63,,,0.00,VWS V14.01,2013-05-08 04:24:00,
2013-05-08 00:25:00,61.5,56.8,30.14,SSE,149,0.0,86.5,85,0.63,,,0.00,VWS V14.01,2013-05-08 04:25:00,
2013-05-08 00:26:00,61.4,56.8,30.14,SSE,149,0.0,86.5,85,0.63,,,0.00,VWS V14.01,2013-05-08 04:26:00,
2013-05-08 00:27:00,62.8,58.1,30.14,SSE,149,0.0,86.5,85,0.63,,,0.00,VWS V14.01,2013-05-08 04:27:00,
2013-05-08 00:28:00,61.3,56.7,30.14,SSE,149,0.0,86.5,85,0.63,,,0.00,VWS V14.01,2013-05-08 04:28:00,
2013-05-08 00:29:00,61.3,56.7,30.14,SSE,149,0.0,86.5,85,0.63,,,0.00,VWS V14.01,2013-05-08 04:29:00,
2013-05-08 00:30:00,61.3,56.6,30.14,SSE,149,0.0,86.5,85,0.63,,,0.00,VWS V14.01,2013-05-08 04:30:00,
2013-05-08 00:31:00,61.2,56.6,30.14,SSE,149,0.0,86.5,85,0.63,,,0.00,VWS V14.01,2013-05-08 04:31:00,
2013-05-08 00:32:00,61.2,56.6,30.14,SSE,149,0.0,86.5,85,0.63,,,0.00,VWS V14.01,2013-05-08 04:32:00,
2013-05-08 00:33:00,62.7,58.1,30.14,SSE,149,0.0,86.5,85,0.63,,,0.00,VWS V14.01,2013-05-08 04:33:00,
2013-05-08 00:34:00,61.2,56.6,30.14,SSE,149,0.0,86.5,85,0.63,,,0.00,VWS V14.01,2013-05-08 04:34:00,
2013-05-08 00:35:00,61.1,56.6,30.14,SSE,149,0.0,86.5,85,0.63,,,0.00,VWS V14.01,2013-05-08 04:35:00,
2013-05-08 00:36:00,61.1,56.6,30.14,SSE,149,0.0,86.5,85,0.63,,,0.00,VWS V14.01,2013-05-08 04:36:00,
2013-05-08 00:37:00,61.0,56.5,30.14,SSE,149,0.0,86.5,85,0.63,,,0.00,VWS V14.01,2013-05-08 04:37:00,
2013-05-08 00:38:00,62.5,57.9,30.14,SSE,149,0.0,86.5,85,0.63,,,0.00,VWS V14.01,2013-05-08 04:38:00,
2013-05-08 00:39:00,61.0,56.6,30.13,SSE,149,0.0,86.5,85,0.63,,,0.00,VWS V14.01,2013-05-08 04:39:00,
2013-05-08 00:40:00,61.0,56.6,30.14,SSE,149,0.0,86.5,86,0.63,,,0.00,VWS V14.01,2013-05-08 04:40:00,
2013-05-08 00:42:00,60.9,56.6,30.13,SSE,149,0.0,86.5,86,0.63,,,0.00,VWS V14.01,2013-05-08 04:42:00,
2013-05-08 00:43:00,62.3,57.6,30.13,SSE,149,0.0,86.5,84,0.63,,,0.00,VWS V14.01,2013-05-08 04:43:00,
2013-05-08 00:44:00,60.8,56.6,30.13,SSE,149,0.0,86.5,86,0.63,,,0.00,VWS V14.01,2013-05-08 04:44:00,
2013-05-08 00:45:00,60.8,56.7,30.13,SSE,149,0.0,86.5,86,0.63,,,0.00,VWS V14.01,2013-05-08 04:45:00,
2013-05-08 00:46:00,60.7,56.6,30.13,SSE,149,0.0,86.5,86,0.63,,,0.00,VWS V14.01,2013-05-08 04:46:00,
2013-05-08 00:47:00,60.7,56.6,30.13,SSE,149,0.0,86.5,86,0.63,,,0.00,VWS V14.01,2013-05-08 04:47:00,
2013-05-08 00:48:00,62.2,57.5,30.13,SSE,149,0.0,86.5,85,0.63,,,0.00,VWS V14.01,2013-05-08 04:48:00,
2013-05-08 00:49:00,60.6,56.5,30.13,SSE,149,0.0,86.5,86,0.63,,,0.00,VWS V14.01,2013-05-08 04:49:00,
2013-05-08 00:50:00,60.6,56.5,30.13,SSE,149,0.0,86.5,86,0.63,,,0.00,VWS V14.01,2013-05-08 04:50:00,
2013-05-08 00:51:00,60.5,56.5,30.13,SSE,149,0.0,86.5,86,0.63,,,0.00,VWS V14.01,2013-05-08 04:51:00,
2013-05-08 00:52:00,60.5,56.4,30.13,SSE,149,0.0,86.5,86,0.63,,,0.00,VWS V14.01,2013-05-08 04:52:00,
2013-05-08 00:53:00,60.5,56.4,30.13,SSE,149,0.0,86.5,86,0.63,,,0.00,VWS V14.01,2013-05-08 04:53:00,
2013-05-08 00:54:00,62.1,57.5,30.13,SSE,149,0.0,86.5,85,0.63,,,0.00,VWS V14.01,2013-05-08 04:54:00,
2013-05-08 00:55:00,60.4,56.4,30.13,SSE,149,0.0,86.5,87,0.63,,,0.00,VWS V14.01,2013-05-08 04:55:00,
2013-05-08 00:56:00,60.4,56.4,30.13,SSE,149,0.0,86.5,87,0.63,,,0.00,VWS V14.01,2013-05-08 04:56:00,
2013-05-08 00:57:00,60.5,56.6,30.13,SSE,149,0.0,86.5,87,0.63,,,0.00,VWS V14.01,2013-05-08 04:57:00,
2013-05-08 00:58:00,60.4,56.5,30.13,SSE,149,0.0,86.5,87,0.63,,,0.00,VWS V14.01,2013-05-08 04:58:00,
2013-05-08 00:59:00,60.4,56.5,30.13,SSE,149,0.0,86.5,87,0.63,,,0.00,VWS V14.01,2013-05-08 04:59:00,
2013-05-08 01:00:00,60.4,56.5,30.13,SSE,149,0.0,86.5,87,0.63,,,0.00,VWS V14.01,2013-05-08 05:00:00,
2013-05-08 01:01:00,60.4,56.5,30.13,SSE,149,0.0,86.5,87,0.63,,,0.00,VWS V14.01,2013-05-08 05:01:00,
2013-05-08 01:02:00,60.4,56.5,30.13,SSE,149,0.0,86.5,87,0.63,,,0.00,VWS V14.01,2013-05-08 05:02:00,
2013-05-08 01:03:00,60.4,56.5,30.13,SSE,149,0.0,86.5,87,0.63,,,0.00,VWS V14.01,2013-05-08 05:03:00,
2013-05-08 01:04:00,60.4,56.6,30.13,SSE,149,0.0,86.5,87,0.63,,,0.00,VWS V14.01,2013-05-08 05:04:00,
2013-05-08 01:05:00,60.5,56.7,30.13,SSE,149,0.0,86.5,87,0.63,,,0.00,VWS V14.01,2013-05-08 05:05:00,
2013-05-08 01:06:00,60.4,56.6,30.13,SSE,149,0.0,86.5,87,0.63,,,0.00,VWS V14.01,2013-05-08 05:06:00,
2013-05-08 01:07:00,60.5,56.7,30.13,SSE,149,0.0,86.5,87,0.63,,,0.00,VWS V14.01,2013-05-08 05:07:00,
2013-05-08 01:09:00,60.5,56.7,30.13,SSE,149,0.0,86.5,87,0.63,,,0.00,VWS V14.01,2013-05-08 05:09:00,
2013-05-08 01:10:00,60.4,56.7,30.13,SSE,149,0.0,86.5,88,0.63,,,0.00,VWS V14.01,2013-05-08 05:10:00,
2013-05-08 01:11:00,60.5,56.8,30.13,SSE,149,0.0,86.5,88,0.63,,,0.00,VWS V14.01,2013-05-08 05:11:00,
2013-05-08 01:12:00,60.5,56.9,30.13,SSE,149,0.0,86.5,88,0.63,,,0.00,VWS V14.01,2013-05-08 05:12:00,
2013-05-08 01:13:00,60.5,56.9,30.13,SSE,149,0.0,86.5,88,0.63,,,0.00,VWS V14.01,2013-05-08 05:13:00,
2013-05-08 01:14:00,60.5,56.9,30.12,SSE,149,0.0,86.5,88,0.63,,,0.00,VWS V14.01,2013-05-08 05:14:00,
2013-05-08 01:15:00,60.5,56.8,30.12,SSE,149,0.0,86.5,88,0.63,,,0.00,VWS V14.01,2013-05-08 05:15:00,
2013-05-08 01:16:00,60.5,56.9,30.12,SSE,149,0.0,86.5,88,0.63,,,0.00,VWS V14.01,2013-05-08 05:16:00,
2013-05-08 01:17:00,60.6,56.9,30.12,SSE,149,0.0,86.5,88,0.63,,,0.00,VWS V14.01,2013-05-08 05:17:00,
2013-05-08 01:18:00,60.6,56.9,30.12,SSE,149,0.0,86.5,88,0.63,,,0.00,VWS V14.01,2013-05-08 05:18:00,
2013-05-08 01:19:00,60.6,56.9,30.12,SSE,149,0.0,86.5,88,0.63,,,0.00,VWS V14.01,2013-05-08 05:19:00,
2013-05-08 01:20:00,60.5,56.7,30.12,SSE,149,0.0,86.5,87,0.63,,,0.00,VWS V14.01,2013-05-08 05:20:00,
2013-05-08 01:21:00,60.5,56.7,30.12,SSE,149,0.0,86.5,87,0.63,,,0.00,VWS V14.01,2013-05-08 05:21:00,
2013-05-08 01:22:00,60.6,56.8,30.12,SSE,149,0.0,86.5,87,0.63,,,0.00,VWS V14.01,2013-05-08 05:22:00,
2013-05-08 01:23:00,60.6,56.8,30.12,SSE,149,0.0,86.5,87,0.63,,,0.00,VWS V14.01,2013-05-08 05:23:00,
2013-05-08 01:24:00,60.5,56.7,30.12,SSE,149,0.0,86.5,87,0.63,,,0.00,VWS V14.01,2013-05-08 05:24:00,
2013-05-08 01:25:00,60.6,56.7,30.12,SSE,149,0.0,86.5,87,0.63,,,0.00,VWS V14.01,2013-05-08 05:25:00,
2013-05-08 01:26:00,60.5,56.7,30.12,SSE,149,0.0,86.5,87,0.63,,,0.00,VWS V14.01,2013-05-08 05:26:00,
2013-05-08 01:27:00,60.5,56.7,30.12,SSE,149,0.0,86.5,87,0.63,,,0.00,VWS V14.01,2013-05-08 05:27:00,
2013-05-08 01:28:00,60.4,56.5,30.12,SSE,149,0.0,86.5,87,0.63,,,0.00,VWS V14.01,2013-05-08 05:28:00,
2013-05-08 01:29:00,60.5,56.7,30.12,SSE,149,0.0,86.5,87,0.63,,,0.00,VWS V14.01,2013-05-08 05:29:00,
2013-05-08 01:30:00,60.4,56.5,30.12,SSE,149,0.0,86.5,87,0.63,,,0.00,VWS V14.01,2013-05-08 05:30:00,
2013-05-08 01:31:00,60.5,56.7,30.12,SSE,149,0.0,86.5,87,0.63,,,0.00,VWS V14.01,2013-05-08 05:31:00,
2013-05-08 01:32:00,60.5,56.7,30.12,SSE,149,0.0,86.5,87,0.63,,,0.00,VWS V14.01,2013-05-08 05:32:00,
2013-05-08 01:33:00,60.5,56.7,30.12,SSE,149,0.0,86.5,87,0.63,,,0.00,VWS V14.01,2013-05-08 05:33:00,
2013-05-08 01:34:00,60.5,56.7,30.12,SSE,149,0.0,86.5,87,0.63,,,0.00,VWS V14.01,2013-05-08 05:34:00,
2013-05-08 01:35:00,60.4,56.6,30.12,SSE,149,0.0,86.5,87,0.63,,,0.00,VWS V14.01,2013-05-08 05:35:00,
2013-05-08 01:36:00,60.5,56.7,30.12,SSE,149,0.0,86.5,87,0.63,,,0.00,VWS V14.01,2013-05-08 05:36:00,
2013-05-08 01:38:00,60.5,56.7,30.12,SSE,149,0.0,86.5,87,0.63,,,0.00,VWS V14.01,2013-05-08 05:38:00,
2013-05-08 01:42:00,60.5,56.6,30.12,SSE,149,0.0,86.5,87,0.63,,,0.00,VWS V14.01,2013-05-08 05:42:00,
2013-05-08 01:43:00,60.5,56.6,30.12,SSE,149,0.0,86.5,87,0.63,,,0.00,VWS V14.01,2013-05-08 05:43:00,
2013-05-08 01:51:00,60.4,56.7,30.11,SSE,149,0.0,86.5,87,0.63,,,0.00,VWS V14.01,2013-05-08 05:51:00,
2013-05-08 01:54:00,60.4,56.8,30.11,SSE,149,0.0,86.5,88,0.63,,,0.00,VWS V14.01,2013-05-08 05:54:00,
2013-05-08 02:18:00,59.8,56.4,30.11,SSE,149,0.0,86.5,89,0.63,,,0.00,VWS V14.01,2013-05-08 06:18:00,
2013-05-08 02:36:00,60.5,56.7,30.12,SSE,149,0.0,86.5,87,0.63,,,0.00,VWS V14.01,2013-05-08 06:36:00,
2013-05-08 02:42:00,60.5,56.6,30.12,SSE,149,0.0,86.5,87,0.63,,,0.00,VWS V14.01,2013-05-08 06:42:00,
2013-05-08 02:47:00,60.4,56.6,30.12,SSE,149,0.0,86.5,87,0.63,,,0.00,VWS V14.01,2013-05-08 06:47:00,
2013-05-08 02:53:00,60.4,56.8,30.11,SSE,149,0.0,86.5,88,0.63,,,0.00,VWS V14.01,2013-05-08 06:53:00,
2013-05-08 02:58:00,60.3,56.8,30.11,SSE,149,0.0,86.5,88,0.63,,,0.00,VWS V14.01,2013-05-08 06:58:00,
2013-05-08 03:03:00,60.1,56.7,30.11,SSE,149,0.0,86.5,88,0.63,,,0.00,VWS V14.01,2013-05-08 07:03:00,
2013-05-08 03:09:00,60.0,56.7,30.11,SSE,149,0.0,86.5,89,0.63,,,0.00,VWS V14.01,2013-05-08 07:09:00,
2013-05-08 03:15:00,59.9,56.5,30.11,SSE,149,0.0,86.5,89,0.63,,,0.00,VWS V14.01,2013-05-08 07:15:00,
2013-05-08 03:20:00,59.8,56.4,30.11,SSE,149,0.0,86.5,88,0.63,,,0.00,VWS V14.01,2013-05-08 07:20:00,
2013-05-08 03:29:00,59.6,56.3,30.11,SSE,149,0.0,86.5,89,0.63,,,0.00,VWS V14.01,2013-05-08 07:29:00,
2013-05-08 03:34:00,59.6,56.4,30.11,SSE,149,0.0,86.5,89,0.63,,,0.00,VWS V14.01,2013-05-08 07:34:00,
2013-05-08 03:40:00,59.5,56.7,30.11,SSE,149,0.0,86.5,90,0.63,,,0.00,VWS V14.01,2013-05-08 07:40:00,
2013-05-08 03:45:00,59.5,56.6,30.11,SSE,149,0.0,86.5,90,0.63,,,0.00,VWS V14.01,2013-05-08 07:45:00,
2013-05-08 03:50:00,59.5,56.5,30.11,SSE,149,0.0,86.5,90,0.63,,,0.00,VWS V14.01,2013-05-08 07:50:00,
2013-05-08 03:55:00,59.5,56.5,30.11,SSE,149,0.0,86.5,90,0.63,,,0.00,VWS V14.01,2013-05-08 07:55:00,
2013-05-08 04:00:00,59.6,56.7,30.11,SSE,149,0.0,86.5,90,0.63,,,0.00,VWS V14.01,2013-05-08 08:00:00,
2013-05-08 04:06:00,59.6,56.7,30.10,SSE,149,0.0,86.5,90,0.63,,,0.00,VWS V14.01,2013-05-08 08:06:00,
2013-05-08 04:12:00,59.5,56.7,30.10,SSE,149,0.0,86.5,90,0.63,,,0.00,VWS V14.01,2013-05-08 08:12:00,
2013-05-08 04:17:00,59.5,56.7,30.10,SSE,149,0.0,86.5,90,0.63,,,0.00,VWS V14.01,2013-05-08 08:17:00,
2013-05-08 04:22:00,59.4,56.7,30.10,SSE,149,0.0,86.5,91,0.63,,,0.00,VWS V14.01,2013-05-08 08:22:00,
2013-05-08 04:28:00,59.5,56.9,30.10,SSE,149,0.0,86.5,91,0.63,,,0.00,VWS V14.01,2013-05-08 08:28:00,
2013-05-08 04:34:00,59.5,56.9,30.10,SSE,149,0.0,86.5,91,0.63,,,0.00,VWS V14.01,2013-05-08 08:34:00,
2013-05-08 04:39:00,59.6,57.0,30.10,SSE,149,0.0,86.5,91,0.63,,,0.00,VWS V14.01,2013-05-08 08:39:00,
2013-05-08 04:45:00,59.7,57.2,30.10,SSE,149,0.0,86.5,91,0.63,,,0.00,VWS V14.01,2013-05-08 08:45:00,
2013-05-08 04:50:00,59.7,57.2,30.10,SSE,149,0.0,86.5,91,0.63,,,0.00,VWS V14.01,2013-05-08 08:50:00,
2013-05-08 04:56:00,59.7,57.2,30.10,SSE,149,0.0,86.5,91,0.63,,,0.00,VWS V14.01,2013-05-08 08:56:00,
2013-05-08 05:01:00,59.7,57.2,30.10,SSE,149,0.0,86.5,91,0.63,,,0.00,VWS V14.01,2013-05-08 09:01:00,
2013-05-08 05:06:00,59.8,57.2,30.10,SSE,149,0.0,86.5,91,0.63,,,0.00,VWS V14.01,2013-05-08 09:06:00,
2013-05-08 05:12:00,59.7,57.0,30.10,SSE,149,0.0,86.5,91,0.63,,,0.00,VWS V14.01,2013-05-08 09:12:00,
2013-05-08 05:17:00,59.7,57.1,30.10,SSE,149,0.0,86.5,91,0.63,,,0.00,VWS V14.01,2013-05-08 09:17:00,
2013-05-08 05:23:00,59.8,57.1,30.10,SSE,149,0.0,86.5,91,0.63,,,0.00,VWS V14.01,2013-05-08 09:23:00,
2013-05-08 05:28:00,59.9,57.3,30.10,SSE,149,0.0,86.5,91,0.63,,,0.00,VWS V14.01,2013-05-08 09:28:00,
2013-05-08 05:33:00,60.0,57.4,30.10,SSE,149,0.0,86.5,91,0.63,,,0.00,VWS V14.01,2013-05-08 09:33:00,
2013-05-08 05:38:00,59.9,57.3,30.10,SSE,149,0.0,86.5,91,0.63,,,0.00,VWS V14.01,2013-05-08 09:38:00,
2013-05-08 05:43:00,60.1,57.5,30.10,SSE,149,0.0,86.5,91,0.63,,,0.00,VWS V14.01,2013-05-08 09:43:00,
2013-05-08 05:49:00,60.2,57.6,30.10,SSE,149,0.0,86.5,91,0.63,,,0.00,VWS V14.01,2013-05-08 09:49:00,
2013-05-08 05:54:00,60.3,57.8,30.10,SSE,149,0.0,86.5,92,0.63,,,0.00,VWS V14.01,2013-05-08 09:54:00,
2013-05-08 05:59:00,60.3,57.8,30.11,SSE,149,0.0,86.5,92,0.63,,,0.00,VWS V14.01,2013-05-08 09:59:00,
2013-05-08 06:04:00,60.4,58.0,30.11,SSE,149,0.0,86.5,92,0.63,,,0.00,VWS V14.01,2013-05-08 10:04:00,
2013-05-08 06:09:00,60.5,58.1,30.11,SSE,149,0.0,86.5,92,0.63,,,0.00,VWS V14.01,2013-05-08 10:09:00,
2013-05-08 06:14:00,60.5,58.2,30.12,SSE,149,0.0,86.5,92,0.63,,,0.00,VWS V14.01,2013-05-08 10:14:00,
2013-05-08 06:20:00,60.6,58.3,30.12,SSE,149,0.0,86.5,92,0.63,,,0.00,VWS V14.01,2013-05-08 10:20:00,
2013-05-08 06:25:00,60.6,58.3,30.12,SSE,149,0.0,86.5,92,0.63,,,0.00,VWS V14.01,2013-05-08 10:25:00,
2013-05-08 06:30:00,60.6,58.2,30.12,SSE,149,0.0,86.5,92,0.63,,,0.00,VWS V14.01,2013-05-08 10:30:00,
2013-05-08 06:35:00,60.6,58.2,30.12,SSE,149,0.0,86.5,92,0.63,,,0.00,VWS V14.01,2013-05-08 10:35:00,
2013-05-08 06:40:00,60.6,58.2,30.11,SSE,149,0.0,86.5,92,0.63,,,0.00,VWS V14.01,2013-05-08 10:40:00,
2013-05-08 06:46:00,60.7,58.3,30.12,SSE,149,0.0,86.5,92,0.63,,,0.00,VWS V14.01,2013-05-08 10:46:00,
2013-05-08 06:51:00,60.8,58.3,30.12,SSE,149,0.0,86.5,92,0.63,,,0.00,VWS V14.01,2013-05-08 10:51:00,
2013-05-08 06:56:00,60.9,58.4,30.12,SSE,149,0.0,86.5,92,0.63,,,0.00,VWS V14.01,2013-05-08 10:56:00,
2013-05-08 07:01:00,60.9,58.4,30.12,NNE,18,0.0,86.5,92,0.63,,,0.00,VWS V14.01,2013-05-08 11:01:00,
2013-05-08 07:06:00,60.9,58.5,30.12,NNE,18,0.0,86.5,92,0.63,,,0.00,VWS V14.01,2013-05-08 11:06:00,
2013-05-08 07:12:00,60.9,58.4,30.13,NNE,18,0.0,86.5,92,0.63,,,0.00,VWS V14.01,2013-05-08 11:12:00,
2013-05-08 07:17:00,61.0,58.6,30.13,NNE,18,0.0,86.5,92,0.63,,,0.00,VWS V14.01,2013-05-08 11:17:00,
2013-05-08 07:22:00,61.0,58.5,30.13,NNE,18,0.0,86.5,92,0.63,,,0.00,VWS V14.01,2013-05-08 11:22:00,
2013-05-08 07:27:00,61.1,58.6,30.13,North,10,0.0,86.5,92,0.63,,,0.00,VWS V14.01,2013-05-08 11:27:00,
2013-05-08 07:32:00,61.2,58.7,30.13,North,10,0.0,86.5,92,0.63,,,0.00,VWS V14.01,2013-05-08 11:32:00,
2013-05-08 07:38:00,61.3,58.8,30.13,North,10,0.0,86.5,92,0.63,,,0.00,VWS V14.01,2013-05-08 11:38:00,
2013-05-08 07:43:00,61.3,58.8,30.13,East,87,0.0,86.5,92,0.63,,,0.00,VWS V14.01,2013-05-08 11:43:00,
2013-05-08 07:48:00,61.4,58.9,30.13,East,87,0.0,86.5,92,0.63,,,0.00,VWS V14.01,2013-05-08 11:48:00,
2013-05-08 07:53:00,61.4,58.9,30.13,East,87,0.0,86.5,92,0.63,,,0.00,VWS V14.01,2013-05-08 11:53:00,
2013-05-08 07:58:00,61.5,59.1,30.13,East,87,0.0,86.5,92,0.64,,,0.01,VWS V14.01,2013-05-08 11:58:00,
2013-05-08 08:03:00,61.5,59.1,30.13,East,87,0.0,86.5,92,0.64,,,0.01,VWS V14.01,2013-05-08 12:03:00,
2013-05-08 08:09:00,61.7,59.4,30.13,East,87,0.0,86.5,92,0.64,,,0.01,VWS V14.01,2013-05-08 12:09:00,
2013-05-08 08:14:00,61.8,59.5,30.13,East,87,0.0,86.5,92,0.64,,,0.01,VWS V14.01,2013-05-08 12:14:00,
2013-05-08 08:19:00,61.8,59.5,30.13,East,87,0.0,86.5,92,0.65,,,0.02,VWS V14.01,2013-05-08 12:19:00,
2013-05-08 08:24:00,61.7,59.5,30.13,East,87,0.0,86.5,92,0.65,,,0.02,VWS V14.01,2013-05-08 12:24:00,
2013-05-08 08:29:00,61.6,59.5,30.13,NE,53,0.0,86.5,93,0.66,,,0.03,VWS V14.01,2013-05-08 12:29:00,
2013-05-08 08:34:00,61.5,59.3,30.13,East,87,0.0,86.5,93,0.66,,,0.03,VWS V14.01,2013-05-08 12:34:00,
2013-05-08 08:40:00,61.5,59.5,30.13,East,87,0.0,86.5,93,0.67,,,0.04,VWS V14.01,2013-05-08 12:40:00,
2013-05-08 08:45:00,61.6,59.6,30.13,East,87,0.0,86.5,93,0.67,,,0.04,VWS V14.01,2013-05-08 12:45:00,
2013-05-08 08:50:00,61.7,59.8,30.13,East,87,0.0,86.5,94,0.67,,,0.04,VWS V14.01,2013-05-08 12:50:00,
2013-05-08 08:55:00,61.7,59.8,30.13,ENE,72,0.0,86.5,94,0.67,,,0.04,VWS V14.01,2013-05-08 12:55:00,
2013-05-08 09:00:00,61.8,59.9,30.12,SE,141,0.0,86.5,94,0.67,,,0.04,VWS V14.01,2013-05-08 13:00:00,
2013-05-08 09:06:00,61.8,59.9,30.12,East,94,3.3,86.5,94,0.67,,,0.04,VWS V14.01,2013-05-08 13:06:00,
2013-05-08 09:11:00,61.9,60.0,30.12,East,94,0.0,86.5,93,0.68,,,0.05,VWS V14.01,2013-05-08 13:11:00,
2013-05-08 09:16:00,61.8,59.9,30.12,ENE,69,0.0,86.5,94,0.68,,,0.05,VWS V14.01,2013-05-08 13:16:00,
2013-05-08 09:22:00,61.8,59.8,30.12,ENE,69,0.0,86.5,93,0.68,,,0.05,VWS V14.01,2013-05-08 13:22:00,
2013-05-08 09:27:00,61.9,60.0,30.12,ENE,59,0.0,86.5,94,0.74,,,0.11,VWS V14.01,2013-05-08 13:27:00,
2013-05-08 09:32:00,62.0,60.3,30.12,ENE,59,0.0,86.5,94,0.74,,,0.11,VWS V14.01,2013-05-08 13:32:00,
2013-05-08 09:37:00,62.1,60.4,30.12,ENE,59,0.0,86.5,94,0.74,,,0.11,VWS V14.01,2013-05-08 13:37:00,
2013-05-08 09:42:00,62.3,60.6,30.12,ENE,59,0.0,86.5,94,0.74,,,0.11,VWS V14.01,2013-05-08 13:42:00,
2013-05-08 09:48:00,62.2,60.5,30.12,ENE,59,0.0,86.5,94,0.74,,,0.11,VWS V14.01,2013-05-08 13:48:00,
2013-05-08 09:53:00,62.4,60.7,30.12,East,96,0.0,86.5,94,0.74,,,0.11,VWS V14.01,2013-05-08 13:53:00,
2013-05-08 09:58:00,62.4,60.7,30.12,East,96,0.0,86.5,94,0.74,,,0.11,VWS V14.01,2013-05-08 13:58:00,
2013-05-08 10:03:00,62.6,60.9,30.11,East,96,0.0,86.5,94,0.74,,,0.11,VWS V14.01,2013-05-08 14:03:00,
2013-05-08 10:08:00,62.8,61.1,30.11,East,96,0.0,86.5,94,0.74,,,0.11,VWS V14.01,2013-05-08 14:08:00,
2013-05-08 10:13:00,62.8,61.1,30.10,East,96,0.0,86.5,94,0.75,,,0.12,VWS V14.01,2013-05-08 14:13:00,
2013-05-08 10:19:00,62.8,61.1,30.10,ENE,75,0.0,86.5,94,0.75,,,0.12,VWS V14.01,2013-05-08 14:19:00,
2013-05-08 10:24:00,62.9,61.3,30.10,ENE,60,0.0,86.5,94,0.75,,,0.12,VWS V14.01,2013-05-08 14:24:00,
2013-05-08 10:29:00,62.9,61.3,30.10,ENE,76,0.0,86.5,94,0.75,,,0.12,VWS V14.01,2013-05-08 14:29:00,
2013-05-08 10:34:00,63.0,61.3,30.10,ENE,76,0.0,86.5,94,0.75,,,0.12,VWS V14.01,2013-05-08 14:34:00,
2013-05-08 10:39:00,63.0,61.3,30.10,ESE,120,0.0,86.5,94,0.75,,,0.12,VWS V14.01,2013-05-08 14:39:00,
2013-05-08 10:45:00,63.0,61.2,30.10,SSE,162,5.2,86.5,94,0.75,,,0.12,VWS V14.01,2013-05-08 14:45:00,
2013-05-08 10:50:00,63.1,61.3,30.10,SSE,150,0.0,86.5,94,0.76,,,0.13,VWS V14.01,2013-05-08 14:50:00,
2013-05-08 10:55:00,63.1,61.4,30.10,ENE,76,0.0,86.5,94,0.76,,,0.13,VWS V14.01,2013-05-08 14:55:00,
2013-05-08 11:00:00,63.2,61.5,30.10,East,101,0.0,86.5,94,0.76,,,0.13,VWS V14.01,2013-05-08 15:00:00,
2013-05-08 11:05:00,63.1,61.5,30.10,SE,127,0.0,86.5,95,0.76,,,0.13,VWS V14.01,2013-05-08 15:05:00,
2013-05-08 11:11:00,63.1,61.6,30.10,East,83,3.0,86.5,95,0.77,,,0.14,VWS V14.01,2013-05-08 15:11:00,
2013-05-08 11:16:00,63.0,61.6,30.10,ESE,112,4.2,86.5,95,0.77,,,0.14,VWS V14.01,2013-05-08 15:16:00,
2013-05-08 11:21:00,63.3,61.9,30.10,ESE,110,5.0,86.5,95,0.77,,,0.14,VWS V14.01,2013-05-08 15:21:00,
2013-05-08 11:26:00,63.6,62.2,30.10,East,79,0.0,86.5,95,0.77,,,0.14,VWS V14.01,2013-05-08 15:26:00,
2013-05-08 11:31:00,64.0,62.5,30.10,East,94,0.0,86.5,95,0.78,,,0.15,VWS V14.01,2013-05-08 15:31:00,
2013-05-08 11:37:00,64.1,62.4,30.10,SE,131,0.0,86.5,94,0.78,,,0.15,VWS V14.01,2013-05-08 15:37:00,
2013-05-08 11:42:00,64.2,62.4,30.10,NNE,32,3.0,86.5,94,0.78,,,0.15,VWS V14.01,2013-05-08 15:42:00,
2013-05-08 11:47:00,64.2,62.6,30.10,East,79,0.0,86.5,94,0.78,,,0.15,VWS V14.01,2013-05-08 15:47:00,
2013-05-08 11:53:00,64.3,62.8,30.09,ENE,75,2.7,86.5,95,0.78,,,0.15,VWS V14.01,2013-05-08 15:53:00,
2013-05-08 11:58:00,64.4,62.8,30.09,East,101,0.0,86.5,95,0.78,,,0.15,VWS V14.01,2013-05-08 15:58:00,
2013-05-08 12:03:00,64.7,63.1,30.08,NNE,21,0.0,86.5,94,0.78,,,0.15,VWS V14.01,2013-05-08 16:03:00,
2013-05-08 12:09:00,64.9,63.2,30.08,ESE,122,4.2,86.5,94,0.78,,,0.15,VWS V14.01,2013-05-08 16:09:00,
2013-05-08 12:14:00,65.1,63.4,30.08,East,100,0.0,86.5,94,0.78,,,0.15,VWS V14.01,2013-05-08 16:14:00,
2013-05-08 12:19:00,65.3,63.5,30.08,NE,56,4.8,86.5,94,0.78,,,0.15,VWS V14.01,2013-05-08 16:19:00,
2013-05-08 12:25:00,65.4,63.5,30.07,ENE,69,4.5,86.5,94,0.78,,,0.15,VWS V14.01,2013-05-08 16:25:00,
2013-05-08 12:30:00,65.4,63.3,30.07,SE,124,6.0,86.5,93,0.78,,,0.15,VWS V14.01,2013-05-08 16:30:00,
2013-05-08 12:36:00,65.5,63.5,30.07,SSE,149,0.0,86.5,93,0.78,,,0.15,VWS V14.01,2013-05-08 16:36:00,
2013-05-08 12:42:00,65.7,63.7,30.07,NE,52,0.0,86.5,93,0.78,,,0.15,VWS V14.01,2013-05-08 16:42:00,
2013-05-08 12:47:00,66.1,64.2,30.07,NE,46,0.0,86.5,94,0.78,,,0.15,VWS V14.01,2013-05-08 16:47:00,
2013-05-08 12:52:00,66.6,64.3,30.06,ESE,104,3.1,86.5,92,0.78,,,0.15,VWS V14.01,2013-05-08 16:52:00,
2013-05-08 12:58:00,66.8,64.3,30.05,ESE,120,4.2,86.5,92,0.78,,,0.15,VWS V14.01,2013-05-08 16:58:00,
2013-05-08 13:03:00,66.8,64.0,30.05,NNE,13,3.2,86.5,91,0.78,,,0.15,VWS V14.01,2013-05-08 17:03:00,
2013-05-08 13:08:00,66.7,63.9,30.05,East,93,0.0,86.5,91,0.78,,,0.15,VWS V14.01,2013-05-08 17:08:00,
2013-05-08 13:13:00,66.4,63.6,30.06,SE,142,0.0,86.5,91,0.78,,,0.15,VWS V14.01,2013-05-08 17:13:00,
2013-05-08 13:18:00,66.2,63.5,30.06,East,101,5.6,86.5,91,0.78,,,0.15,VWS V14.01,2013-05-08 17:18:00,
2013-05-08 13:24:00,65.9,63.2,30.05,ESE,110,0.0,86.5,91,0.78,,,0.15,VWS V14.01,2013-05-08 17:24:00,
2013-05-08 13:29:00,65.7,63.1,30.05,ESE,122,0.0,86.5,91,0.78,,,0.15,VWS V14.01,2013-05-08 17:29:00,
2013-05-08 13:34:00,65.7,63.1,30.05,NNE,28,4.2,86.5,91,0.78,,,0.15,VWS V14.01,2013-05-08 17:34:00,
2013-05-08 13:39:00,65.4,62.9,30.05,NE,45,0.0,86.5,92,0.79,,,0.16,VWS V14.01,2013-05-08 17:39:00,
2013-05-08 13:44:00,65.2,63.0,30.05,ENE,59,0.0,86.5,92,0.83,,,0.20,VWS V14.01,2013-05-08 17:44:00,
2013-05-08 13:50:00,65.0,62.9,30.04,ENE,59,0.0,86.5,93,0.86,,,0.23,VWS V14.01,2013-05-08 17:50:00,
2013-05-08 13:55:00,64.9,62.8,30.04,East,84,0.0,86.5,93,0.88,,,0.25,VWS V14.01,2013-05-08 17:55:00,
2013-05-08 14:00:00,64.7,62.7,30.04,East,82,0.0,86.5,93,0.89,,,0.26,VWS V14.01,2013-05-08 18:00:00,
2013-05-08 14:05:00,64.6,62.8,30.04,ESE,111,0.0,86.5,94,0.92,,,0.30,VWS V14.01,2013-05-08 18:05:00,
2013-05-08 14:10:00,64.5,62.8,30.04,East,82,0.0,86.5,94,0.96,,,0.33,VWS V14.01,2013-05-08 18:10:00,
2013-05-08 14:15:00,64.6,63.0,30.04,NE,48,0.0,86.5,95,1.05,,,0.42,VWS V14.01,2013-05-08 18:15:00,
2013-05-08 14:21:00,64.6,63.0,30.03,East,93,0.0,86.5,95,1.06,,,0.43,VWS V14.01,2013-05-08 18:21:00,
2013-05-08 14:26:00,64.6,63.1,30.03,South,169,0.0,86.5,95,1.07,,,0.44,VWS V14.01,2013-05-08 18:26:00,
2013-05-08 14:31:00,64.4,62.9,30.03,ESE,117,0.0,86.5,95,1.07,,,0.44,VWS V14.01,2013-05-08 18:31:00,
2013-05-08 14:36:00,64.5,63.0,30.04,East,89,0.0,86.5,95,1.07,,,0.44,VWS V14.01,2013-05-08 18:36:00,
2013-05-08 14:42:00,64.4,63.0,30.04,ENE,58,0.0,86.5,95,1.07,,,0.44,VWS V14.01,2013-05-08 18:42:00,
2013-05-08 14:47:00,64.7,63.3,30.03,SE,135,6.3,86.5,95,1.07,,,0.44,VWS V14.01,2013-05-08 18:47:00,
2013-05-08 14:52:00,64.6,63.0,30.03,East,94,0.0,86.5,95,1.07,,,0.44,VWS V14.01,2013-05-08 18:52:00,
2013-05-08 14:57:00,64.6,63.1,30.03,ESE,120,0.0,86.5,95,1.07,,,0.44,VWS V14.01,2013-05-08 18:57:00,
2013-05-08 15:02:00,64.7,63.2,30.03,SE,128,0.0,86.5,95,1.07,,,0.44,VWS V14.01,2013-05-08 19:02:00,
2013-05-08 15:07:00,64.7,63.2,30.03,SSE,163,0.0,86.5,95,1.07,,,0.44,VWS V14.01,2013-05-08 19:07:00,
2013-05-08 15:13:00,64.9,63.4,30.03,SSE,163,0.0,86.5,95,1.07,,,0.44,VWS V14.01,2013-05-08 19:13:00,
2013-05-08 15:18:00,64.9,63.3,30.03,East,98,0.0,86.5,94,1.07,,,0.44,VWS V14.01,2013-05-08 19:18:00,
2013-05-08 15:23:00,65.0,63.4,30.03,SSW,204,0.0,86.5,94,1.07,,,0.44,VWS V14.01,2013-05-08 19:23:00,
2013-05-08 15:28:00,65.0,63.4,30.03,NE,48,0.0,86.5,95,1.07,,,0.44,VWS V14.01,2013-05-08 19:28:00,
2013-05-08 15:33:00,65.0,63.3,30.03,SE,132,0.0,86.5,94,1.07,,,0.44,VWS V14.01,2013-05-08 19:33:00,
2013-05-08 15:39:00,64.9,63.2,30.03,SE,129,0.0,86.5,94,1.07,,,0.44,VWS V14.01,2013-05-08 19:39:00,
2013-05-08 15:44:00,64.9,63.2,30.02,SE,129,0.0,86.5,94,1.07,,,0.44,VWS V14.01,2013-05-08 19:44:00,
2013-05-08 15:49:00,65.0,63.4,30.02,SE,129,0.0,86.5,94,1.07,,,0.44,VWS V14.01,2013-05-08 19:49:00,
2013-05-08 15:54:00,65.1,63.4,30.02,NE,51,0.0,86.5,94,1.07,,,0.44,VWS V14.01,2013-05-08 19:54:00,
2013-05-08 15:59:00,65.3,63.7,30.02,ENE,59,0.0,86.5,95,1.07,,,0.44,VWS V14.01,2013-05-08 19:59:00,
2013-05-08 16:05:00,65.5,63.9,30.02,SE,143,0.0,86.5,94,1.07,,,0.44,VWS V14.01,2013-05-08 20:05:00,
2013-05-08 16:10:00,65.5,63.6,30.02,SE,129,3.5,86.5,94,1.07,,,0.44,VWS V14.01,2013-05-08 20:10:00,
2013-05-08 16:15:00,65.4,63.6,30.02,SE,129,4.5,86.5,94,1.07,,,0.44,VWS V14.01,2013-05-08 20:15:00,
2013-05-08 16:20:00,65.6,63.8,30.02,ESE,122,0.0,86.5,94,1.07,,,0.44,VWS V14.01,2013-05-08 20:20:00,
2013-05-08 16:26:00,65.6,63.7,30.03,ENE,63,0.0,86.5,93,1.07,,,0.44,VWS V14.01,2013-05-08 20:26:00,
2013-05-08 16:31:00,65.4,63.5,30.03,East,97,0.0,86.5,94,1.07,,,0.44,VWS V14.01,2013-05-08 20:31:00,
2013-05-08 16:36:00,65.3,63.4,30.03,ESE,117,0.0,86.5,94,1.07,,,0.44,VWS V14.01,2013-05-08 20:36:00,
2013-05-08 16:42:00,65.1,63.2,30.03,East,90,0.0,86.5,93,1.07,,,0.44,VWS V14.01,2013-05-08 20:42:00,
2013-05-08 16:47:00,65.0,63.2,30.03,South,172,0.0,86.5,94,1.07,,,0.44,VWS V14.01,2013-05-08 20:47:00,
2013-05-08 16:52:00,64.9,63.0,30.04,NE,51,0.0,86.5,94,1.07,,,0.44,VWS V14.01,2013-05-08 20:52:00,
2013-05-08 16:58:00,64.6,62.8,30.03,South,172,0.0,86.5,94,1.07,,,0.44,VWS V14.01,2013-05-08 20:58:00,
2013-05-08 17:03:00,64.5,62.7,30.03,SE,132,0.0,86.5,94,1.07,,,0.44,VWS V14.01,2013-05-08 21:03:00,
2013-05-08 17:08:00,64.6,62.9,30.03,SE,132,0.0,86.5,94,1.07,,,0.44,VWS V14.01,2013-05-08 21:08:00,
2013-05-08 17:13:00,64.7,63.1,30.03,ENE,69,0.0,86.5,94,1.07,,,0.44,VWS V14.01,2013-05-08 21:13:00,
2013-05-08 17:18:00,65.1,63.4,30.03,East,89,4.3,86.5,94,1.07,,,0.44,VWS V14.01,2013-05-08 21:18:00,
2013-05-08 17:24:00,65.3,63.5,30.03,East,89,0.0,86.5,94,1.07,,,0.44,VWS V14.01,2013-05-08 21:24:00,
2013-05-08 17:29:00,65.6,63.6,30.03,East,90,0.0,86.5,93,1.07,,,0.44,VWS V14.01,2013-05-08 21:29:00,
2013-05-08 17:34:00,65.7,63.6,30.03,ESE,111,0.0,86.5,93,1.07,,,0.44,VWS V14.01,2013-05-08 21:34:00,
2013-05-08 17:39:00,65.7,63.5,30.02,ESE,111,0.0,86.5,93,1.07,,,0.44,VWS V14.01,2013-05-08 21:39:00,
2013-05-08 17:44:00,65.6,63.3,30.02,ESE,112,0.0,86.5,92,1.07,,,0.44,VWS V14.01,2013-05-08 21:44:00,
2013-05-08 17:50:00,65.9,63.7,30.02,ESE,112,0.0,86.5,93,1.07,,,0.44,VWS V14.01,2013-05-08 21:50:00,
2013-05-08 17:55:00,66.0,63.7,30.02,ESE,112,0.0,86.5,92,1.07,,,0.44,VWS V14.01,2013-05-08 21:55:00,
2013-05-08 18:00:00,66.2,63.7,30.02,ESE,112,0.0,86.5,92,1.07,,,0.44,VWS V14.01,2013-05-08 22:00:00,
2013-05-08 18:05:00,66.2,63.6,30.01,ESE,112,0.0,86.5,91,1.07,,,0.44,VWS V14.01,2013-05-08 22:05:00,
2013-05-08 18:10:00,66.1,63.6,30.01,ESE,112,0.0,86.5,92,1.07,,,0.44,VWS V14.01,2013-05-08 22:10:00,
2013-05-08 18:16:00,66.2,63.7,30.01,ESE,112,0.0,86.5,92,1.07,,,0.44,VWS V14.01,2013-05-08 22:16:00,
2013-05-08 18:21:00,66.1,63.5,30.01,ESE,112,0.0,86.5,91,1.07,,,0.44,VWS V14.01,2013-05-08 22:21:00,
2013-05-08 18:27:00,66.0,63.4,30.02,ESE,112,0.0,86.5,91,1.07,,,0.44,VWS V14.01,2013-05-08 22:27:00,
2013-05-08 18:32:00,66.0,63.5,30.02,ESE,112,0.0,86.5,92,1.07,,,0.44,VWS V14.01,2013-05-08 22:32:00,
2013-05-08 18:38:00,66.0,63.4,30.02,South,187,4.7,86.5,91,1.07,,,0.44,VWS V14.01,2013-05-08 22:38:00,
2013-05-08 18:43:00,65.7,62.9,30.02,NNE,28,0.0,86.5,91,1.07,,,0.44,VWS V14.01,2013-05-08 22:43:00,
2013-05-08 18:49:00,65.4,62.7,30.02,NNE,28,0.0,86.5,91,1.07,,,0.44,VWS V14.01,2013-05-08 22:49:00,
2013-05-08 18:54:00,65.2,62.5,30.02,NNE,28,0.0,86.5,91,1.07,,,0.44,VWS V14.01,2013-05-08 22:54:00,
2013-05-08 19:00:00,65.1,62.4,30.02,East,87,0.0,86.5,91,1.07,,,0.44,VWS V14.01,2013-05-08 23:00:00,
2013-05-08 19:05:00,65.1,62.5,30.02,East,87,0.0,86.5,91,1.07,,,0.44,VWS V14.01,2013-05-08 23:05:00,
2013-05-08 19:10:00,65.1,62.6,30.02,East,87,0.0,86.5,92,1.07,,,0.44,VWS V14.01,2013-05-08 23:10:00,
2013-05-08 19:17:00,65.1,62.6,30.03,East,87,0.0,86.5,92,1.07,,,0.44,VWS V14.01,2013-05-08 23:17:00,
2013-05-08 19:23:00,65.0,62.3,30.03,NE,39,0.0,86.5,91,1.07,,,0.44,VWS V14.01,2013-05-08 23:23:00,
2013-05-08 19:28:00,64.8,62.1,30.02,NE,39,0.0,86.5,91,1.07,,,0.44,VWS V14.01,2013-05-08 23:28:00,
2013-05-08 19:34:00,64.4,61.8,30.02,NE,39,0.0,86.5,91,1.07,,,0.44,VWS V14.01,2013-05-08 23:34:00,
2013-05-08 19:40:00,64.2,61.7,30.02,NE,39,0.0,86.5,92,1.07,,,0.44,VWS V14.01,2013-05-08 23:40:00,
2013-05-08 19:45:00,64.0,61.5,30.02,South,173,0.0,86.5,92,1.07,,,0.44,VWS V14.01,2013-05-08 23:45:00,
2013-05-08 19:50:00,63.9,61.5,30.02,South,173,0.0,86.5,92,1.07,,,0.44,VWS V14.01,2013-05-08 23:50:00,
2013-05-08 19:56:00,63.9,61.5,30.02,South,173,0.0,86.5,92,1.07,,,0.44,VWS V14.01,2013-05-08 23:56:00,
2013-05-08 20:01:00,63.7,61.4,30.02,South,173,0.0,86.5,92,1.07,,,0.44,VWS V14.01,2013-05-09 00:01:00,
2013-05-08 20:09:00,63.5,61.3,30.03,South,173,0.0,86.5,92,1.07,,,0.44,VWS V14.01,2013-05-09 00:09:00,
2013-05-08 20:14:00,63.2,60.8,30.03,NE,56,0.0,86.5,92,1.07,,,0.44,VWS V14.01,2013-05-09 00:14:00,
2013-05-08 20:20:00,62.9,60.5,30.03,SSE,153,0.0,86.5,92,1.07,,,0.44,VWS V14.01,2013-05-09 00:20:00,
2013-05-08 20:25:00,62.5,60.2,30.03,SSE,153,0.0,86.5,92,1.07,,,0.44,VWS V14.01,2013-05-09 00:25:00,
2013-05-08 20:31:00,62.3,60.0,30.03,SSW,208,0.0,86.5,92,1.07,,,0.44,VWS V14.01,2013-05-09 00:31:00,
2013-05-08 20:36:00,61.9,59.7,30.04,SE,124,0.0,86.5,92,1.07,,,0.44,VWS V14.01,2013-05-09 00:36:00,
2013-05-08 20:41:00,61.7,59.5,30.04,ENE,60,0.0,86.5,93,1.07,,,0.44,VWS V14.01,2013-05-09 00:41:00,
2013-05-08 20:47:00,61.6,59.5,30.04,ENE,60,0.0,86.5,93,1.07,,,0.44,VWS V14.01,2013-05-09 00:47:00,
2013-05-08 20:52:00,61.6,59.6,30.04,ENE,60,0.0,86.5,93,1.07,,,0.44,VWS V14.01,2013-05-09 00:52:00,
2013-05-08 20:58:00,61.6,59.5,30.04,ENE,60,0.0,86.5,93,1.07,,,0.44,VWS V14.01,2013-05-09 00:58:00,
2013-05-08 21:03:00,61.5,59.3,30.04,ENE,60,0.0,86.5,93,1.07,,,0.44,VWS V14.01,2013-05-09 01:03:00,
2013-05-08 21:08:00,61.4,59.2,30.05,SE,139,0.0,86.5,93,1.07,,,0.44,VWS V14.01,2013-05-09 01:08:00,
2013-05-08 21:14:00,61.2,59.1,30.05,SE,139,0.0,86.5,93,1.07,,,0.44,VWS V14.01,2013-05-09 01:14:00,
2013-05-08 21:20:00,61.1,59.1,30.05,SE,139,0.0,86.5,93,1.07,,,0.44,VWS V14.01,2013-05-09 01:20:00,
2013-05-08 21:25:00,61.1,59.1,30.05,SE,139,0.0,86.5,93,1.07,,,0.44,VWS V14.01,2013-05-09 01:25:00,
2013-05-08 21:31:00,61.0,58.9,30.06,SE,139,0.0,86.5,93,1.07,,,0.44,VWS V14.01,2013-05-09 01:31:00,
2013-05-08 21:36:00,60.8,58.8,30.06,SE,139,0.0,86.5,93,1.07,,,0.44,VWS V14.01,2013-05-09 01:36:00,
2013-05-08 21:42:00,60.7,58.7,30.06,SE,139,0.0,86.5,93,1.07,,,0.44,VWS V14.01,2013-05-09 01:42:00,
2013-05-08 21:48:00,60.5,58.5,30.06,SE,139,0.0,86.5,93,1.07,,,0.44,VWS V14.01,2013-05-09 01:48:00,
2013-05-08 21:53:00,60.4,58.5,30.06,SE,139,0.0,86.5,93,1.07,,,0.44,VWS V14.01,2013-05-09 01:53:00,
2013-05-08 21:58:00,60.2,58.3,30.06,SE,139,0.0,86.5,94,1.07,,,0.44,VWS V14.01,2013-05-09 01:58:00,
2013-05-08 22:04:00,59.9,58.1,30.06,SE,139,0.0,86.5,94,1.07,,,0.44,VWS V14.01,2013-05-09 02:04:00,
2013-05-08 22:09:00,59.9,58.1,30.06,SE,139,0.0,86.5,94,1.07,,,0.44,VWS V14.01,2013-05-09 02:09:00,
2013-05-08 22:15:00,59.7,58.0,30.06,SE,139,0.0,86.5,94,1.07,,,0.44,VWS V14.01,2013-05-09 02:15:00,
2013-05-08 22:20:00,59.5,57.8,30.06,SE,139,0.0,86.5,94,1.07,,,0.44,VWS V14.01,2013-05-09 02:20:00,
2013-05-08 22:26:00,59.4,57.8,30.06,SE,139,0.0,86.5,94,1.07,,,0.44,VWS V14.01,2013-05-09 02:26:00,
2013-05-08 22:31:00,59.3,57.7,30.06,SE,139,0.0,86.5,94,1.07,,,0.44,VWS V14.01,2013-05-09 02:31:00,
2013-05-08 22:37:00,59.1,57.4,30.06,SE,139,0.0,86.5,94,1.07,,,0.44,VWS V14.01,2013-05-09 02:37:00,
2013-05-08 22:42:00,58.8,57.1,30.06,SE,139,0.0,86.5,94,1.07,,,0.44,VWS V14.01,2013-05-09 02:42:00,
2013-05-08 22:47:00,58.6,57.0,30.05,SE,139,0.0,86.5,94,1.07,,,0.44,VWS V14.01,2013-05-09 02:47:00,
2013-05-08 22:53:00,58.4,56.8,30.05,SE,139,0.0,86.5,94,1.07,,,0.44,VWS V14.01,2013-05-09 02:53:00,
2013-05-08 22:58:00,58.1,56.5,30.05,SE,139,0.0,86.5,94,1.07,,,0.44,VWS V14.01,2013-05-09 02:58:00,
2013-05-08 23:03:00,58.0,56.5,30.05,SE,139,0.0,86.5,95,1.07,,,0.44,VWS V14.01,2013-05-09 03:03:00,
2013-05-08 23:09:00,57.7,56.2,30.05,SE,139,0.0,86.5,95,1.07,,,0.44,VWS V14.01,2013-05-09 03:09:00,
2013-05-08 23:14:00,57.5,56.1,30.05,SE,139,0.0,86.5,95,1.07,,,0.44,VWS V14.01,2013-05-09 03:14:00,
2013-05-08 23:20:00,57.3,55.9,30.05,SE,139,0.0,86.5,95,1.07,,,0.44,VWS V14.01,2013-05-09 03:20:00,
2013-05-08 23:25:00,57.1,55.7,30.04,SE,139,0.0,86.5,95,1.07,,,0.44,VWS V14.01,2013-05-09 03:25:00,
2013-05-08 23:30:00,57.0,55.6,30.04,SE,139,0.0,86.5,95,1.07,,,0.44,VWS V14.01,2013-05-09 03:30:00,
2013-05-08 23:35:00,56.8,55.5,30.04,SE,139,0.0,86.5,95,1.07,,,0.44,VWS V14.01,2013-05-09 03:35:00,
2013-05-08 23:41:00,56.6,55.3,30.04,SE,139,0.0,86.5,96,1.07,,,0.44,VWS V14.01,2013-05-09 03:41:00,
2013-05-08 23:46:00,56.6,55.3,30.04,SE,139,0.0,86.5,96,1.07,,,0.44,VWS V14.01,2013-05-09 03:46:00,
2013-05-08 23:51:00,56.5,55.2,30.04,SE,139,0.0,86.5,95,1.07,,,0.44,VWS V14.01,2013-05-09 03:51:00,
2013-05-08 23:56:00,56.5,55.3,30.04,SE,139,0.0,86.5,96,1.07,,,0.44,VWS V14.01,2013-05-09 03:56:00,